Terminal Aerodrome Forecast
Issued by NWS

Home | Current Version | Previous Version | Graphics & Text | Print | Product List | Glossary On
Versions: 1 2 3 4 5 6 7 8 9 10 11 12 13 14 15 16 17 18 19 20 21 22
000
FTUS43 KBIS 151720
TAFDIK
TAF
KDIK 151720Z 1518/1618 34015KT 2SM BLSN VCSH OVC025
     FM151900 33014KT P6SM OVC040
     FM160400 26011KT P6SM SKC
     FM161300 23011KT P6SM FEW250=

USA.gov is the U.S. government's official web portal to all federal, state and local government web resources and services.